ESOK 250720Z 21008KT 9999 -RA BKN009 01/01 Q1002